sensor_id;sensor_type;location;lat;lon;timestamp;P1;durP1;ratioP1;P2;durP2;ratioP2
70832;SDS011;58452;59.418;17.962;2023-06-26T00:01:02;6.55;;;3.55;;
70832;SDS011;58452;59.418;17.962;2023-06-26T00:03:27;4.93;;;3.70;;
70832;SDS011;58452;59.418;17.962;2023-06-26T00:05:54;5.75;;;3.60;;
70832;SDS011;58452;59.418;17.962;2023-06-26T00:08:19;4.63;;;3.38;;
70832;SDS011;58452;59.418;17.962;2023-06-26T00:10:44;7.65;;;3.00;;
70832;SDS011;58452;59.418;17.962;2023-06-26T00:13:11;4.45;;;2.90;;
70832;SDS011;58452;59.418;17.962;2023-06-26T00:15:37;3.97;;;3.00;;
70832;SDS011;58452;59.418;17.962;2023-06-26T00:18:03;4.30;;;3.20;;
70832;SDS011;58452;59.418;17.962;2023-06-26T00:20:28;6.28;;;4.40;;
70832;SDS011;58452;59.418;17.962;2023-06-26T00:22:54;5.00;;;4.28;;
70832;SDS011;58452;59.418;17.962;2023-06-26T00:25:20;7.28;;;3.35;;
70832;SDS011;58452;59.418;17.962;2023-06-26T00:27:46;7.03;;;3.33;;
70832;SDS011;58452;59.418;17.962;2023-06-26T00:30:11;4.07;;;3.42;;
70832;SDS011;58452;59.418;17.962;2023-06-26T00:32:37;9.68;;;2.95;;
70832;SDS011;58452;59.418;17.962;2023-06-26T00:35:02;6.00;;;3.88;;
70832;SDS011;58452;59.418;17.962;2023-06-26T00:37:28;4.75;;;3.22;;
70832;SDS011;58452;59.418;17.962;2023-06-26T00:39:53;6.20;;;3.17;;
70832;SDS011;58452;59.418;17.962;2023-06-26T00:42:18;3.90;;;3.10;;
70832;SDS011;58452;59.418;17.962;2023-06-26T00:44:44;4.15;;;3.33;;
70832;SDS011;58452;59.418;17.962;2023-06-26T00:47:10;4.70;;;2.90;;
70832;SDS011;58452;59.418;17.962;2023-06-26T00:49:40;6.80;;;3.28;;
70832;SDS011;58452;59.418;17.962;2023-06-26T00:52:06;4.93;;;3.42;;
70832;SDS011;58452;59.418;17.962;2023-06-26T00:54:31;5.22;;;3.67;;
70832;SDS011;58452;59.418;17.962;2023-06-26T00:56:57;3.90;;;3.35;;
70832;SDS011;58452;59.418;17.962;2023-06-26T00:59:23;5.88;;;3.22;;
70832;SDS011;58452;59.418;17.962;2023-06-26T01:01:48;9.85;;;4.30;;
70832;SDS011;58452;59.418;17.962;2023-06-26T01:04:14;5.63;;;3.70;;
70832;SDS011;58452;59.418;17.962;2023-06-26T01:06:43;4.55;;;3.08;;
70832;SDS011;58452;59.418;17.962;2023-06-26T01:09:14;4.13;;;2.92;;
70832;SDS011;58452;59.418;17.962;2023-06-26T01:11:42;2.88;;;2.60;;
70832;SDS011;58452;59.418;17.962;2023-06-26T01:14:08;3.97;;;3.40;;
70832;SDS011;58452;59.418;17.962;2023-06-26T01:16:33;4.50;;;3.80;;
70832;SDS011;58452;59.418;17.962;2023-06-26T01:19:00;6.68;;;3.15;;
70832;SDS011;58452;59.418;17.962;2023-06-26T01:21:25;3.90;;;2.42;;
70832;SDS011;58452;59.418;17.962;2023-06-26T01:26:23;4.13;;;3.60;;
70832;SDS011;58452;59.418;17.962;2023-06-26T01:28:52;3.58;;;3.05;;
70832;SDS011;58452;59.418;17.962;2023-06-26T01:31:21;4.60;;;3.38;;
70832;SDS011;58452;59.418;17.962;2023-06-26T01:33:47;9.70;;;3.83;;
70832;SDS011;58452;59.418;17.962;2023-06-26T01:36:12;4.35;;;3.17;;
70832;SDS011;58452;59.418;17.962;2023-06-26T01:38:38;6.70;;;3.03;;
70832;SDS011;58452;59.418;17.962;2023-06-26T01:41:03;6.22;;;3.10;;
70832;SDS011;58452;59.418;17.962;2023-06-26T01:49:08;5.47;;;3.50;;
70832;SDS011;58452;59.418;17.962;2023-06-26T01:51:42;5.70;;;3.17;;
70832;SDS011;58452;59.418;17.962;2023-06-26T01:54:13;8.05;;;3.50;;
70832;SDS011;58452;59.418;17.962;2023-06-26T01:56:44;7.78;;;4.32;;
70832;SDS011;58452;59.418;17.962;2023-06-26T01:59:10;4.95;;;3.35;;
70832;SDS011;58452;59.418;17.962;2023-06-26T02:01:39;5.63;;;3.00;;
70832;SDS011;58452;59.418;17.962;2023-06-26T02:04:04;6.75;;;4.00;;
70832;SDS011;58452;59.418;17.962;2023-06-26T02:06:30;6.00;;;3.70;;
70832;SDS011;58452;59.418;17.962;2023-06-26T02:08:55;4.30;;;3.30;;
70832;SDS011;58452;59.418;17.962;2023-06-26T02:11:21;7.85;;;3.90;;
70832;SDS011;58452;59.418;17.962;2023-06-26T02:13:47;6.47;;;3.80;;
70832;SDS011;58452;59.418;17.962;2023-06-26T02:16:13;4.05;;;3.60;;
70832;SDS011;58452;59.418;17.962;2023-06-26T02:18:38;4.70;;;2.80;;
70832;SDS011;58452;59.418;17.962;2023-06-26T02:21:04;5.40;;;4.00;;
70832;SDS011;58452;59.418;17.962;2023-06-26T02:23:29;3.75;;;3.33;;
70832;SDS011;58452;59.418;17.962;2023-06-26T02:25:55;4.28;;;3.35;;
70832;SDS011;58452;59.418;17.962;2023-06-26T02:28:20;7.53;;;4.15;;
70832;SDS011;58452;59.418;17.962;2023-06-26T02:30:45;5.00;;;3.53;;
70832;SDS011;58452;59.418;17.962;2023-06-26T02:33:11;7.05;;;4.40;;
70832;SDS011;58452;59.418;17.962;2023-06-26T02:35:36;4.15;;;3.25;;
70832;SDS011;58452;59.418;17.962;2023-06-26T02:38:02;3.72;;;3.13;;
70832;SDS011;58452;59.418;17.962;2023-06-26T02:40:27;5.93;;;3.38;;
70832;SDS011;58452;59.418;17.962;2023-06-26T02:42:52;3.95;;;2.90;;
70832;SDS011;58452;59.418;17.962;2023-06-26T02:45:18;4.13;;;3.33;;
70832;SDS011;58452;59.418;17.962;2023-06-26T02:47:43;3.60;;;3.25;;
70832;SDS011;58452;59.418;17.962;2023-06-26T02:50:09;5.05;;;3.60;;
70832;SDS011;58452;59.418;17.962;2023-06-26T02:52:34;4.00;;;3.60;;
70832;SDS011;58452;59.418;17.962;2023-06-26T02:55:00;4.70;;;3.22;;
70832;SDS011;58452;59.418;17.962;2023-06-26T02:57:25;4.85;;;3.58;;
70832;SDS011;58452;59.418;17.962;2023-06-26T02:59:50;3.80;;;3.40;;
70832;SDS011;58452;59.418;17.962;2023-06-26T03:02:16;6.47;;;3.92;;
70832;SDS011;58452;59.418;17.962;2023-06-26T03:04:41;4.88;;;3.65;;
70832;SDS011;58452;59.418;17.962;2023-06-26T03:07:08;3.85;;;3.33;;
70832;SDS011;58452;59.418;17.962;2023-06-26T03:09:33;4.85;;;3.47;;
70832;SDS011;58452;59.418;17.962;2023-06-26T03:11:59;5.70;;;3.47;;
70832;SDS011;58452;59.418;17.962;2023-06-26T03:14:24;6.90;;;3.55;;
70832;SDS011;58452;59.418;17.962;2023-06-26T03:16:51;4.15;;;3.75;;
70832;SDS011;58452;59.418;17.962;2023-06-26T03:19:17;6.65;;;3.88;;
70832;SDS011;58452;59.418;17.962;2023-06-26T03:21:43;5.82;;;4.13;;
70832;SDS011;58452;59.418;17.962;2023-06-26T03:24:08;5.88;;;4.00;;
70832;SDS011;58452;59.418;17.962;2023-06-26T03:26:34;4.22;;;3.83;;
70832;SDS011;58452;59.418;17.962;2023-06-26T03:28:59;4.07;;;3.60;;
70832;SDS011;58452;59.418;17.962;2023-06-26T03:31:25;4.45;;;3.60;;
70832;SDS011;58452;59.418;17.962;2023-06-26T03:33:50;5.28;;;3.95;;
70832;SDS011;58452;59.418;17.962;2023-06-26T03:36:15;5.28;;;4.13;;
70832;SDS011;58452;59.418;17.962;2023-06-26T03:38:41;4.97;;;4.35;;
70832;SDS011;58452;59.418;17.962;2023-06-26T03:41:06;5.07;;;4.35;;
70832;SDS011;58452;59.418;17.962;2023-06-26T03:43:31;5.90;;;3.80;;
70832;SDS011;58452;59.418;17.962;2023-06-26T03:45:57;6.57;;;4.30;;
70832;SDS011;58452;59.418;17.962;2023-06-26T03:48:22;5.28;;;4.78;;
70832;SDS011;58452;59.418;17.962;2023-06-26T03:50:48;7.15;;;4.80;;
70832;SDS011;58452;59.418;17.962;2023-06-26T03:53:14;7.45;;;5.15;;
70832;SDS011;58452;59.418;17.962;2023-06-26T03:55:39;5.18;;;4.55;;
70832;SDS011;58452;59.418;17.962;2023-06-26T03:58:05;5.10;;;3.88;;
70832;SDS011;58452;59.418;17.962;2023-06-26T04:00:30;6.13;;;4.82;;
70832;SDS011;58452;59.418;17.962;2023-06-26T04:02:56;4.53;;;4.13;;
70832;SDS011;58452;59.418;17.962;2023-06-26T04:05:22;4.18;;;3.78;;
70832;SDS011;58452;59.418;17.962;2023-06-26T04:07:51;6.57;;;5.18;;
70832;SDS011;58452;59.418;17.962;2023-06-26T04:10:17;7.38;;;4.90;;
70832;SDS011;58452;59.418;17.962;2023-06-26T04:12:42;6.63;;;4.82;;
70832;SDS011;58452;59.418;17.962;2023-06-26T04:15:08;6.65;;;4.22;;
70832;SDS011;58452;59.418;17.962;2023-06-26T04:17:34;6.63;;;4.65;;
70832;SDS011;58452;59.418;17.962;2023-06-26T04:19:59;4.95;;;4.38;;
70832;SDS011;58452;59.418;17.962;2023-06-26T04:22:24;5.43;;;4.40;;
70832;SDS011;58452;59.418;17.962;2023-06-26T04:24:50;5.60;;;4.43;;
70832;SDS011;58452;59.418;17.962;2023-06-26T04:27:16;6.80;;;4.85;;
70832;SDS011;58452;59.418;17.962;2023-06-26T04:29:42;6.57;;;5.03;;
70832;SDS011;58452;59.418;17.962;2023-06-26T04:32:07;5.20;;;4.55;;
70832;SDS011;58452;59.418;17.962;2023-06-26T04:34:33;4.95;;;4.50;;
70832;SDS011;58452;59.418;17.962;2023-06-26T04:36:59;6.30;;;4.88;;
70832;SDS011;58452;59.418;17.962;2023-06-26T04:39:24;9.23;;;4.78;;
70832;SDS011;58452;59.418;17.962;2023-06-26T04:41:50;5.28;;;4.78;;
70832;SDS011;58452;59.418;17.962;2023-06-26T04:44:15;5.95;;;4.60;;
70832;SDS011;58452;59.418;17.962;2023-06-26T04:46:41;7.43;;;4.82;;
70832;SDS011;58452;59.418;17.962;2023-06-26T04:49:07;5.40;;;4.70;;
70832;SDS011;58452;59.418;17.962;2023-06-26T04:51:33;5.25;;;4.75;;
70832;SDS011;58452;59.418;17.962;2023-06-26T04:53:58;9.60;;;5.03;;
70832;SDS011;58452;59.418;17.962;2023-06-26T04:56:24;7.50;;;4.43;;
70832;SDS011;58452;59.418;17.962;2023-06-26T04:58:49;8.82;;;4.63;;
70832;SDS011;58452;59.418;17.962;2023-06-26T05:01:15;5.47;;;3.60;;
70832;SDS011;58452;59.418;17.962;2023-06-26T05:03:40;8.82;;;4.28;;
70832;SDS011;58452;59.418;17.962;2023-06-26T05:06:06;7.22;;;4.93;;
70832;SDS011;58452;59.418;17.962;2023-06-26T05:08:31;4.63;;;4.22;;
70832;SDS011;58452;59.418;17.962;2023-06-26T05:11:08;5.07;;;4.40;;
70832;SDS011;58452;59.418;17.962;2023-06-26T05:13:36;7.93;;;4.28;;
70832;SDS011;58452;59.418;17.962;2023-06-26T05:16:02;5.70;;;4.10;;
70832;SDS011;58452;59.418;17.962;2023-06-26T05:18:27;9.48;;;4.93;;
70832;SDS011;58452;59.418;17.962;2023-06-26T05:20:53;4.75;;;4.35;;
70832;SDS011;58452;59.418;17.962;2023-06-26T05:23:32;4.90;;;4.10;;
70832;SDS011;58452;59.418;17.962;2023-06-26T05:28:27;4.55;;;4.15;;
70832;SDS011;58452;59.418;17.962;2023-06-26T05:30:56;6.25;;;4.40;;
70832;SDS011;58452;59.418;17.962;2023-06-26T05:33:23;6.10;;;4.45;;
70832;SDS011;58452;59.418;17.962;2023-06-26T05:35:53;5.82;;;4.22;;
70832;SDS011;58452;59.418;17.962;2023-06-26T05:38:25;5.63;;;4.25;;
70832;SDS011;58452;59.418;17.962;2023-06-26T05:40:50;4.55;;;4.15;;
70832;SDS011;58452;59.418;17.962;2023-06-26T05:43:16;4.13;;;3.83;;
70832;SDS011;58452;59.418;17.962;2023-06-26T05:45:46;4.72;;;3.70;;
70832;SDS011;58452;59.418;17.962;2023-06-26T05:48:12;4.75;;;4.00;;
70832;SDS011;58452;59.418;17.962;2023-06-26T05:50:37;5.78;;;3.45;;
70832;SDS011;58452;59.418;17.962;2023-06-26T05:53:03;3.90;;;3.60;;
70832;SDS011;58452;59.418;17.962;2023-06-26T05:55:29;3.72;;;3.42;;
70832;SDS011;58452;59.418;17.962;2023-06-26T05:57:54;3.88;;;3.17;;
70832;SDS011;58452;59.418;17.962;2023-06-26T06:00:23;3.78;;;3.05;;
70832;SDS011;58452;59.418;17.962;2023-06-26T06:02:48;2.88;;;2.47;;
70832;SDS011;58452;59.418;17.962;2023-06-26T06:05:14;2.72;;;2.53;;
70832;SDS011;58452;59.418;17.962;2023-06-26T06:07:39;5.40;;;2.53;;
70832;SDS011;58452;59.418;17.962;2023-06-26T06:10:05;2.95;;;2.47;;
70832;SDS011;58452;59.418;17.962;2023-06-26T06:12:30;2.70;;;2.50;;
70832;SDS011;58452;59.418;17.962;2023-06-26T06:14:56;4.10;;;3.33;;
70832;SDS011;58452;59.418;17.962;2023-06-26T06:17:21;3.25;;;2.92;;
70832;SDS011;58452;59.418;17.962;2023-06-26T06:19:47;3.60;;;2.55;;
70832;SDS011;58452;59.418;17.962;2023-06-26T06:22:13;2.92;;;2.65;;
70832;SDS011;58452;59.418;17.962;2023-06-26T06:24:38;5.25;;;2.75;;
70832;SDS011;58452;59.418;17.962;2023-06-26T06:27:04;3.67;;;2.50;;
70832;SDS011;58452;59.418;17.962;2023-06-26T06:29:29;2.33;;;2.13;;
70832;SDS011;58452;59.418;17.962;2023-06-26T06:31:55;4.18;;;2.60;;
70832;SDS011;58452;59.418;17.962;2023-06-26T06:34:21;3.40;;;2.15;;
70832;SDS011;58452;59.418;17.962;2023-06-26T06:36:46;6.13;;;2.53;;
70832;SDS011;58452;59.418;17.962;2023-06-26T06:39:11;5.32;;;2.65;;
70832;SDS011;58452;59.418;17.962;2023-06-26T06:41:37;2.40;;;2.13;;
70832;SDS011;58452;59.418;17.962;2023-06-26T06:44:03;2.50;;;2.15;;
70832;SDS011;58452;59.418;17.962;2023-06-26T06:46:29;3.15;;;2.63;;
70832;SDS011;58452;59.418;17.962;2023-06-26T06:48:54;3.80;;;2.55;;
70832;SDS011;58452;59.418;17.962;2023-06-26T06:51:21;2.47;;;2.28;;
70832;SDS011;58452;59.418;17.962;2023-06-26T06:53:47;2.72;;;2.33;;
70832;SDS011;58452;59.418;17.962;2023-06-26T06:56:12;2.63;;;2.42;;
70832;SDS011;58452;59.418;17.962;2023-06-26T06:58:38;2.38;;;2.17;;
70832;SDS011;58452;59.418;17.962;2023-06-26T07:01:03;4.32;;;2.13;;
70832;SDS011;58452;59.418;17.962;2023-06-26T07:03:29;2.38;;;2.17;;
70832;SDS011;58452;59.418;17.962;2023-06-26T07:05:55;2.97;;;2.00;;
70832;SDS011;58452;59.418;17.962;2023-06-26T07:08:21;2.03;;;1.65;;
70832;SDS011;58452;59.418;17.962;2023-06-26T07:10:46;3.13;;;2.17;;
70832;SDS011;58452;59.418;17.962;2023-06-26T07:13:11;3.97;;;2.00;;
70832;SDS011;58452;59.418;17.962;2023-06-26T07:15:37;1.95;;;1.75;;
70832;SDS011;58452;59.418;17.962;2023-06-26T07:18:02;2.30;;;2.10;;
70832;SDS011;58452;59.418;17.962;2023-06-26T07:20:27;4.78;;;2.53;;
70832;SDS011;58452;59.418;17.962;2023-06-26T07:22:53;3.00;;;2.28;;
70832;SDS011;58452;59.418;17.962;2023-06-26T07:25:18;2.28;;;1.98;;
70832;SDS011;58452;59.418;17.962;2023-06-26T07:27:44;3.55;;;2.03;;
70832;SDS011;58452;59.418;17.962;2023-06-26T07:30:10;4.22;;;1.95;;
70832;SDS011;58452;59.418;17.962;2023-06-26T07:32:35;1.98;;;1.65;;
70832;SDS011;58452;59.418;17.962;2023-06-26T07:35:01;2.03;;;1.80;;
70832;SDS011;58452;59.418;17.962;2023-06-26T07:37:27;3.35;;;2.40;;
70832;SDS011;58452;59.418;17.962;2023-06-26T07:39:52;4.22;;;2.25;;
70832;SDS011;58452;59.418;17.962;2023-06-26T07:42:17;3.72;;;2.25;;
70832;SDS011;58452;59.418;17.962;2023-06-26T07:44:43;2.72;;;2.08;;
70832;SDS011;58452;59.418;17.962;2023-06-26T07:47:09;2.83;;;2.35;;
70832;SDS011;58452;59.418;17.962;2023-06-26T07:49:34;5.60;;;3.15;;
70832;SDS011;58452;59.418;17.962;2023-06-26T07:52:00;2.10;;;1.90;;
70832;SDS011;58452;59.418;17.962;2023-06-26T07:54:26;2.40;;;1.92;;
70832;SDS011;58452;59.418;17.962;2023-06-26T07:57:02;3.35;;;2.10;;
70832;SDS011;58452;59.418;17.962;2023-06-26T07:59:33;4.20;;;1.85;;
70832;SDS011;58452;59.418;17.962;2023-06-26T08:02:00;2.83;;;1.63;;
70832;SDS011;58452;59.418;17.962;2023-06-26T08:04:26;2.25;;;1.88;;
70832;SDS011;58452;59.418;17.962;2023-06-26T08:07:02;3.30;;;2.30;;
70832;SDS011;58452;59.418;17.962;2023-06-26T08:09:31;2.65;;;1.83;;
70832;SDS011;58452;59.418;17.962;2023-06-26T08:11:57;3.40;;;1.90;;
70832;SDS011;58452;59.418;17.962;2023-06-26T08:14:23;5.38;;;1.90;;
70832;SDS011;58452;59.418;17.962;2023-06-26T08:16:51;2.47;;;1.90;;
70832;SDS011;58452;59.418;17.962;2023-06-26T08:19:17;3.45;;;1.90;;
70832;SDS011;58452;59.418;17.962;2023-06-26T08:21:44;3.20;;;2.00;;
70832;SDS011;58452;59.418;17.962;2023-06-26T08:24:15;3.85;;;1.77;;
70832;SDS011;58452;59.418;17.962;2023-06-26T08:26:44;3.28;;;2.08;;
70832;SDS011;58452;59.418;17.962;2023-06-26T08:29:10;2.03;;;1.73;;
70832;SDS011;58452;59.418;17.962;2023-06-26T08:31:40;1.70;;;1.60;;
70832;SDS011;58452;59.418;17.962;2023-06-26T08:34:10;3.22;;;1.77;;
70832;SDS011;58452;59.418;17.962;2023-06-26T08:36:37;1.60;;;1.50;;
70832;SDS011;58452;59.418;17.962;2023-06-26T08:41:30;1.80;;;1.53;;
70832;SDS011;58452;59.418;17.962;2023-06-26T08:43:58;7.05;;;2.00;;
70832;SDS011;58452;59.418;17.962;2023-06-26T08:46:25;1.60;;;1.48;;
70832;SDS011;58452;59.418;17.962;2023-06-26T08:48:56;2.00;;;1.20;;
70832;SDS011;58452;59.418;17.962;2023-06-26T08:51:28;1.77;;;0.90;;
70832;SDS011;58452;59.418;17.962;2023-06-26T08:53:56;1.85;;;1.25;;
70832;SDS011;58452;59.418;17.962;2023-06-26T08:56:40;2.67;;;1.52;;
70832;SDS011;58452;59.418;17.962;2023-06-26T08:59:09;1.50;;;1.40;;
70832;SDS011;58452;59.418;17.962;2023-06-26T09:01:39;3.22;;;1.75;;
70832;SDS011;58452;59.418;17.962;2023-06-26T09:04:05;2.15;;;1.42;;
70832;SDS011;58452;59.418;17.962;2023-06-26T09:06:39;2.13;;;1.83;;
70832;SDS011;58452;59.418;17.962;2023-06-26T09:09:04;3.17;;;1.73;;
70832;SDS011;58452;59.418;17.962;2023-06-26T09:11:46;4.82;;;1.95;;
70832;SDS011;58452;59.418;17.962;2023-06-26T09:14:12;5.43;;;1.85;;
70832;SDS011;58452;59.418;17.962;2023-06-26T09:16:41;2.00;;;1.80;;
70832;SDS011;58452;59.418;17.962;2023-06-26T09:19:11;2.10;;;1.90;;
70832;SDS011;58452;59.418;17.962;2023-06-26T09:21:43;2.10;;;1.75;;
70832;SDS011;58452;59.418;17.962;2023-06-26T09:24:20;4.68;;;2.20;;
70832;SDS011;58452;59.418;17.962;2023-06-26T09:27:04;3.08;;;2.05;;
70832;SDS011;58452;59.418;17.962;2023-06-26T09:29:35;3.95;;;1.92;;
70832;SDS011;58452;59.418;17.962;2023-06-26T09:32:02;6.38;;;2.03;;
70832;SDS011;58452;59.418;17.962;2023-06-26T09:34:31;1.70;;;1.60;;
70832;SDS011;58452;59.418;17.962;2023-06-26T09:36:57;4.55;;;2.15;;
70832;SDS011;58452;59.418;17.962;2023-06-26T09:39:26;2.75;;;1.88;;
70832;SDS011;58452;59.418;17.962;2023-06-26T09:41:57;3.67;;;1.92;;
70832;SDS011;58452;59.418;17.962;2023-06-26T09:44:31;1.92;;;1.73;;
70832;SDS011;58452;59.418;17.962;2023-06-26T09:46:58;2.33;;;1.85;;
70832;SDS011;58452;59.418;17.962;2023-06-26T09:49:24;1.90;;;1.70;;
70832;SDS011;58452;59.418;17.962;2023-06-26T09:51:50;2.35;;;1.77;;
70832;SDS011;58452;59.418;17.962;2023-06-26T09:54:16;2.70;;;2.05;;
70832;SDS011;58452;59.418;17.962;2023-06-26T09:56:55;4.25;;;1.95;;
70832;SDS011;58452;59.418;17.962;2023-06-26T09:59:46;2.05;;;1.23;;
70832;SDS011;58452;59.418;17.962;2023-06-26T10:02:13;1.80;;;1.40;;
70832;SDS011;58452;59.418;17.962;2023-06-26T10:04:39;3.67;;;1.30;;
70832;SDS011;58452;59.418;17.962;2023-06-26T10:07:05;1.90;;;1.70;;
70832;SDS011;58452;59.418;17.962;2023-06-26T10:09:33;1.67;;;1.40;;
70832;SDS011;58452;59.418;17.962;2023-06-26T10:12:23;2.08;;;1.50;;
70832;SDS011;58452;59.418;17.962;2023-06-26T10:15:07;7.88;;;2.00;;
70832;SDS011;58452;59.418;17.962;2023-06-26T10:17:41;2.10;;;1.50;;
70832;SDS011;58452;59.418;17.962;2023-06-26T10:20:11;1.73;;;1.40;;
70832;SDS011;58452;59.418;17.962;2023-06-26T10:22:45;3.33;;;1.80;;
70832;SDS011;58452;59.418;17.962;2023-06-26T10:25:14;5.32;;;1.90;;
70832;SDS011;58452;59.418;17.962;2023-06-26T10:27:45;2.85;;;1.20;;
70832;SDS011;58452;59.418;17.962;2023-06-26T10:30:16;2.05;;;1.45;;
70832;SDS011;58452;59.418;17.962;2023-06-26T10:32:48;6.40;;;1.80;;
70832;SDS011;58452;59.418;17.962;2023-06-26T10:35:15;1.70;;;1.58;;
70832;SDS011;58452;59.418;17.962;2023-06-26T10:37:45;1.63;;;1.30;;
70832;SDS011;58452;59.418;17.962;2023-06-26T10:40:13;5.65;;;1.80;;
70832;SDS011;58452;59.418;17.962;2023-06-26T10:42:40;2.40;;;1.50;;
70832;SDS011;58452;59.418;17.962;2023-06-26T10:45:09;2.45;;;1.20;;
70832;SDS011;58452;59.418;17.962;2023-06-26T10:47:40;6.80;;;1.40;;
70832;SDS011;58452;59.418;17.962;2023-06-26T10:50:27;2.17;;;1.40;;
70832;SDS011;58452;59.418;17.962;2023-06-26T10:55:43;1.27;;;1.17;;
70832;SDS011;58452;59.418;17.962;2023-06-26T11:03:36;1.30;;;1.20;;
70832;SDS011;58452;59.418;17.962;2023-06-26T11:08:44;2.03;;;1.30;;
70832;SDS011;58452;59.418;17.962;2023-06-26T11:11:14;1.88;;;1.35;;
70832;SDS011;58452;59.418;17.962;2023-06-26T11:13:40;1.77;;;1.17;;
70832;SDS011;58452;59.418;17.962;2023-06-26T11:16:07;2.30;;;1.27;;
70832;SDS011;58452;59.418;17.962;2023-06-26T11:18:33;2.63;;;1.33;;
70832;SDS011;58452;59.418;17.962;2023-06-26T11:21:05;3.25;;;1.65;;
70832;SDS011;58452;59.418;17.962;2023-06-26T11:23:37;1.40;;;1.30;;
70832;SDS011;58452;59.418;17.962;2023-06-26T11:28:45;1.40;;;1.30;;
70832;SDS011;58452;59.418;17.962;2023-06-26T11:31:29;1.88;;;1.55;;
70832;SDS011;58452;59.418;17.962;2023-06-26T11:36:25;1.60;;;1.15;;
70832;SDS011;58452;59.418;17.962;2023-06-26T11:38:52;3.10;;;1.17;;
70832;SDS011;58452;59.418;17.962;2023-06-26T11:41:21;2.53;;;1.35;;
70832;SDS011;58452;59.418;17.962;2023-06-26T11:43:47;1.20;;;1.10;;
70832;SDS011;58452;59.418;17.962;2023-06-26T11:46:12;1.90;;;1.17;;
70832;SDS011;58452;59.418;17.962;2023-06-26T11:48:40;1.63;;;1.15;;
70832;SDS011;58452;59.418;17.962;2023-06-26T11:51:06;3.60;;;1.20;;
70832;SDS011;58452;59.418;17.962;2023-06-26T11:53:32;1.52;;;1.20;;
70832;SDS011;58452;59.418;17.962;2023-06-26T11:56:08;2.35;;;1.02;;
70832;SDS011;58452;59.418;17.962;2023-06-26T11:58:34;1.13;;;1.00;;
70832;SDS011;58452;59.418;17.962;2023-06-26T12:01:00;1.08;;;0.98;;
70832;SDS011;58452;59.418;17.962;2023-06-26T12:03:25;1.95;;;0.75;;
70832;SDS011;58452;59.418;17.962;2023-06-26T12:05:51;0.88;;;0.85;;
70832;SDS011;58452;59.418;17.962;2023-06-26T12:08:17;1.50;;;0.90;;
70832;SDS011;58452;59.418;17.962;2023-06-26T12:10:43;1.48;;;0.80;;
70832;SDS011;58452;59.418;17.962;2023-06-26T12:13:10;1.75;;;1.05;;
70832;SDS011;58452;59.418;17.962;2023-06-26T12:15:36;3.30;;;0.95;;
70832;SDS011;58452;59.418;17.962;2023-06-26T12:18:07;2.53;;;1.27;;
70832;SDS011;58452;59.418;17.962;2023-06-26T12:20:39;2.15;;;0.95;;
70832;SDS011;58452;59.418;17.962;2023-06-26T12:23:05;2.78;;;1.05;;
70832;SDS011;58452;59.418;17.962;2023-06-26T12:25:36;2.83;;;1.17;;
70832;SDS011;58452;59.418;17.962;2023-06-26T12:28:02;1.33;;;1.00;;
70832;SDS011;58452;59.418;17.962;2023-06-26T12:30:27;0.93;;;0.93;;
70832;SDS011;58452;59.418;17.962;2023-06-26T12:32:53;1.08;;;0.80;;
70832;SDS011;58452;59.418;17.962;2023-06-26T12:35:18;1.42;;;0.77;;
70832;SDS011;58452;59.418;17.962;2023-06-26T12:37:44;0.70;;;0.70;;
70832;SDS011;58452;59.418;17.962;2023-06-26T12:40:19;0.47;;;0.47;;
70832;SDS011;58452;59.418;17.962;2023-06-26T12:42:48;0.88;;;0.73;;
70832;SDS011;58452;59.418;17.962;2023-06-26T12:45:14;1.35;;;0.95;;
70832;SDS011;58452;59.418;17.962;2023-06-26T12:47:40;3.63;;;0.90;;
70832;SDS011;58452;59.418;17.962;2023-06-26T12:50:09;1.08;;;0.98;;
70832;SDS011;58452;59.418;17.962;2023-06-26T12:52:34;2.28;;;0.88;;
70832;SDS011;58452;59.418;17.962;2023-06-26T12:54:59;1.67;;;0.80;;
70832;SDS011;58452;59.418;17.962;2023-06-26T12:57:25;3.70;;;0.90;;
70832;SDS011;58452;59.418;17.962;2023-06-26T12:59:51;1.77;;;0.70;;
70832;SDS011;58452;59.418;17.962;2023-06-26T13:02:17;0.75;;;0.60;;
70832;SDS011;58452;59.418;17.962;2023-06-26T13:04:42;1.77;;;1.05;;
70832;SDS011;58452;59.418;17.962;2023-06-26T13:07:09;2.05;;;0.88;;
70832;SDS011;58452;59.418;17.962;2023-06-26T13:09:35;1.23;;;0.98;;
70832;SDS011;58452;59.418;17.962;2023-06-26T13:12:02;1.23;;;0.77;;
70832;SDS011;58452;59.418;17.962;2023-06-26T13:14:29;0.70;;;0.70;;
70832;SDS011;58452;59.418;17.962;2023-06-26T13:16:54;1.80;;;0.70;;
70832;SDS011;58452;59.418;17.962;2023-06-26T13:19:20;1.08;;;0.75;;
70832;SDS011;58452;59.418;17.962;2023-06-26T13:21:45;0.70;;;0.70;;
70832;SDS011;58452;59.418;17.962;2023-06-26T13:24:11;2.45;;;0.90;;
70832;SDS011;58452;59.418;17.962;2023-06-26T13:26:36;1.10;;;0.85;;
70832;SDS011;58452;59.418;17.962;2023-06-26T13:29:01;0.98;;;0.88;;
70832;SDS011;58452;59.418;17.962;2023-06-26T13:31:28;1.05;;;0.95;;
70832;SDS011;58452;59.418;17.962;2023-06-26T13:33:53;0.73;;;0.70;;
70832;SDS011;58452;59.418;17.962;2023-06-26T13:36:22;1.13;;;0.88;;
70832;SDS011;58452;59.418;17.962;2023-06-26T13:38:47;1.02;;;0.85;;
70832;SDS011;58452;59.418;17.962;2023-06-26T13:41:20;0.80;;;0.63;;
70832;SDS011;58452;59.418;17.962;2023-06-26T13:43:46;1.02;;;0.88;;
70832;SDS011;58452;59.418;17.962;2023-06-26T13:46:12;0.82;;;0.70;;
70832;SDS011;58452;59.418;17.962;2023-06-26T13:48:37;1.90;;;1.00;;
70832;SDS011;58452;59.418;17.962;2023-06-26T13:51:02;2.63;;;0.90;;
70832;SDS011;58452;59.418;17.962;2023-06-26T13:53:28;1.15;;;0.85;;
70832;SDS011;58452;59.418;17.962;2023-06-26T13:55:53;0.70;;;0.70;;
70832;SDS011;58452;59.418;17.962;2023-06-26T13:58:19;1.05;;;0.95;;
70832;SDS011;58452;59.418;17.962;2023-06-26T14:00:47;2.28;;;0.90;;
70832;SDS011;58452;59.418;17.962;2023-06-26T14:03:13;0.95;;;0.90;;
70832;SDS011;58452;59.418;17.962;2023-06-26T14:05:38;1.85;;;1.05;;
70832;SDS011;58452;59.418;17.962;2023-06-26T14:08:04;0.93;;;0.88;;
70832;SDS011;58452;59.418;17.962;2023-06-26T14:10:32;0.98;;;0.70;;
70832;SDS011;58452;59.418;17.962;2023-06-26T14:12:58;1.10;;;0.60;;
70832;SDS011;58452;59.418;17.962;2023-06-26T14:15:24;0.82;;;0.82;;
70832;SDS011;58452;59.418;17.962;2023-06-26T14:17:50;1.02;;;0.68;;
70832;SDS011;58452;59.418;17.962;2023-06-26T14:20:16;3.30;;;1.88;;
70832;SDS011;58452;59.418;17.962;2023-06-26T14:22:42;1.05;;;0.80;;
70832;SDS011;58452;59.418;17.962;2023-06-26T14:25:09;1.10;;;1.00;;
70832;SDS011;58452;59.418;17.962;2023-06-26T14:27:36;0.90;;;0.80;;
70832;SDS011;58452;59.418;17.962;2023-06-26T14:30:02;3.17;;;1.20;;
70832;SDS011;58452;59.418;17.962;2023-06-26T14:32:28;1.08;;;1.00;;
70832;SDS011;58452;59.418;17.962;2023-06-26T14:34:55;1.77;;;1.10;;
70832;SDS011;58452;59.418;17.962;2023-06-26T14:37:20;1.00;;;0.90;;
70832;SDS011;58452;59.418;17.962;2023-06-26T14:39:46;1.02;;;0.98;;
70832;SDS011;58452;59.418;17.962;2023-06-26T14:42:11;1.60;;;1.27;;
70832;SDS011;58452;59.418;17.962;2023-06-26T14:44:36;3.25;;;1.23;;
70832;SDS011;58452;59.418;17.962;2023-06-26T14:47:03;2.58;;;1.10;;
70832;SDS011;58452;59.418;17.962;2023-06-26T14:49:29;2.05;;;1.02;;
70832;SDS011;58452;59.418;17.962;2023-06-26T14:51:55;1.27;;;0.93;;
70832;SDS011;58452;59.418;17.962;2023-06-26T14:54:20;1.20;;;1.10;;
70832;SDS011;58452;59.418;17.962;2023-06-26T14:56:45;3.38;;;1.25;;
70832;SDS011;58452;59.418;17.962;2023-06-26T14:59:11;0.70;;;0.70;;
70832;SDS011;58452;59.418;17.962;2023-06-26T15:01:37;1.60;;;1.00;;